createdAt,value
2022-10-15T00:01:27.992Z,101815.53
2022-10-15T00:03:55.622Z,101812.00
2022-10-15T00:06:23.808Z,101813.69
2022-10-15T00:08:52.503Z,101813.69
2022-10-15T00:11:23.994Z,101810.41
2022-10-15T00:13:54.791Z,101823.66
2022-10-15T00:16:26.345Z,101825.38
2022-10-15T00:18:59.385Z,101823.91
2022-10-15T00:21:27.602Z,101825.69
2022-10-15T00:23:56.156Z,101820.38
2022-10-15T00:26:27.104Z,101831.75
2022-10-15T00:28:58.065Z,101822.31
2022-10-15T00:31:28.193Z,101828.44
2022-10-15T00:33:58.885Z,101828.44
2022-10-15T00:36:30.628Z,101834.72
2022-10-15T00:38:58.758Z,101835.59
2022-10-15T00:41:30.635Z,101840.97
2022-10-15T00:44:00.784Z,101841.88
2022-10-15T00:46:34.405Z,101845.53
2022-10-15T00:49:16.108Z,101846.41
2022-10-15T00:51:49.640Z,101841.13
2022-10-15T00:54:17.184Z,101849.06
2022-10-15T00:56:46.641Z,101844.66
2022-10-15T00:59:16.010Z,101846.41
2022-10-15T01:01:44.116Z,101842.75
2022-10-15T01:04:13.404Z,101841.84
2022-10-15T01:06:41.281Z,101842.75
2022-10-15T01:09:10.074Z,101846.41
2022-10-15T01:11:47.568Z,101841.97
2022-10-15T01:14:27.420Z,101846.41
2022-10-15T01:17:32.065Z,101850.09
2022-10-15T01:20:11.336Z,101862.44
2022-10-15T01:23:32.081Z,101862.44
2022-10-15T01:26:30.343Z,101874.66
2022-10-15T01:29:26.900Z,101868.69
2022-10-15T01:32:24.230Z,101878.34
2022-10-15T01:35:02.635Z,101876.75
2022-10-15T01:38:13.462Z,101875.16
2022-10-15T01:40:51.322Z,101881.38
2022-10-15T01:43:49.028Z,101876.16
2022-10-15T01:46:50.909Z,101884.94
2022-10-15T01:49:26.339Z,101877.03
2022-10-15T01:51:55.989Z,101877.97
2022-10-15T01:54:28.028Z,101885.00
2022-10-15T01:56:59.016Z,101888.53
2022-10-15T01:59:33.206Z,101886.16
2022-10-15T02:02:00.930Z,101887.19
2022-10-15T02:04:31.333Z,101884.34
2022-10-15T02:07:04.483Z,101893.06
2022-10-15T02:09:43.781Z,101888.06
2022-10-15T02:12:46.156Z,101882.91
2022-10-15T02:15:46.117Z,101883.72
2022-10-15T02:18:23.293Z,101887.25
2022-10-15T02:21:05.831Z,101880.09
2022-10-15T02:23:41.542Z,101884.56
2022-10-15T02:26:11.685Z,101884.75
2022-10-15T02:28:44.626Z,101879.38
2022-10-15T02:31:15.331Z,101886.34
2022-10-15T02:33:45.004Z,101891.56
2022-10-15T02:36:15.326Z,101883.78
2022-10-15T02:38:45.127Z,101888.44
2022-10-15T02:41:13.537Z,101892.88
2022-10-15T02:43:41.872Z,101887.47
2022-10-15T02:46:15.018Z,101890.97
2022-10-15T02:48:44.853Z,101892.81
2022-10-15T02:51:12.662Z,101895.44
2022-10-15T02:53:40.180Z,101896.34
2022-10-15T02:56:08.021Z,101899.06
2022-10-15T02:58:37.297Z,101888.69
2022-10-15T03:01:05.849Z,101894.97
2022-10-15T03:03:34.258Z,101896.47
2022-10-15T03:06:01.892Z,101903.44
2022-10-15T03:08:29.783Z,101902.63
2022-10-15T03:11:01.588Z,101906.91
2022-10-15T03:13:30.444Z,101906.88
2022-10-15T03:15:58.003Z,101904.28
2022-10-15T03:18:25.752Z,101905.97
2022-10-15T03:20:56.021Z,101901.59
2022-10-15T03:23:24.635Z,101899.09
2022-10-15T03:26:00.175Z,101895.66
2022-10-15T03:28:27.969Z,101894.75
2022-10-15T03:30:55.677Z,101898.34
2022-10-15T03:33:25.174Z,101898.38
2022-10-15T03:35:54.007Z,101897.53
2022-10-15T03:38:21.845Z,101883.59
2022-10-15T03:40:51.420Z,101894.13
2022-10-15T03:43:31.148Z,101895.88
2022-10-15T03:46:05.602Z,101895.88
2022-10-15T03:48:38.298Z,101889.78
2022-10-15T03:51:06.242Z,101890.69
2022-10-15T03:53:34.534Z,101887.09
2022-10-15T03:56:07.039Z,101895.00
2022-10-15T03:58:38.145Z,101888.91
2022-10-15T04:01:13.720Z,101894.09
2022-10-15T04:03:42.170Z,101893.31
2022-10-15T04:06:10.681Z,101890.81
2022-10-15T04:08:39.647Z,101890.97
2022-10-15T04:11:21.188Z,101889.28
2022-10-15T04:13:59.033Z,101892.78
2022-10-15T04:16:26.653Z,101896.31
2022-10-15T04:18:59.889Z,101894.56
2022-10-15T04:21:27.523Z,101897.25
2022-10-15T04:24:00.273Z,101904.19
2022-10-15T04:26:35.991Z,101904.13
2022-10-15T04:29:04.327Z,101906.72
2022-10-15T04:31:33.535Z,101897.13
2022-10-15T04:34:03.319Z,101909.31
2022-10-15T04:36:31.075Z,101914.59
2022-10-15T04:39:05.883Z,101912.09
2022-10-15T04:41:37.997Z,101908.72
2022-10-15T04:44:11.393Z,101915.66
2022-10-15T04:46:40.149Z,101917.34
2022-10-15T04:49:26.840Z,101921.72
2022-10-15T04:51:54.869Z,101925.16
2022-10-15T04:54:28.417Z,101921.72
2022-10-15T04:57:03.982Z,101926.09
2022-10-15T04:59:32.000Z,101929.63
2022-10-15T05:02:17.697Z,101931.47
2022-10-15T05:04:50.497Z,101935.03
2022-10-15T05:07:18.053Z,101939.47
2022-10-15T05:09:48.148Z,101941.22
2022-10-15T05:12:20.532Z,101940.34
2022-10-15T05:14:49.341Z,101938.59
2022-10-15T05:17:23.915Z,101948.06
2022-10-15T05:19:52.108Z,101949.81
2022-10-15T05:22:24.430Z,101948.16
2022-10-15T05:24:55.912Z,101951.56
2022-10-15T05:27:29.372Z,101952.31
2022-10-15T05:29:56.998Z,101951.50
2022-10-15T05:32:32.408Z,101952.34
2022-10-15T05:35:00.609Z,101955.03
2022-10-15T05:37:39.805Z,101955.81
2022-10-15T05:40:08.284Z,101952.44
2022-10-15T05:42:36.073Z,101955.81
2022-10-15T05:45:03.823Z,101957.44
2022-10-15T05:47:31.687Z,101963.44
2022-10-15T05:50:14.192Z,101953.88
2022-10-15T05:52:45.709Z,101959.91
2022-10-15T05:55:22.745Z,101959.00
2022-10-15T05:57:50.313Z,101968.47
2022-10-15T06:00:19.140Z,101961.38
2022-10-15T06:05:26.656Z,101963.78
2022-10-15T06:07:56.613Z,101966.41
2022-10-15T06:10:24.396Z,101963.00
2022-10-15T06:12:57.555Z,101966.41
2022-10-15T06:15:25.471Z,101966.47
2022-10-15T06:17:54.340Z,101965.53
2022-10-15T06:20:22.314Z,101966.31
2022-10-15T06:22:50.500Z,101973.22
2022-10-15T06:25:18.172Z,101961.84
2022-10-15T06:27:45.895Z,101962.72
2022-10-15T06:30:13.453Z,101965.22
2022-10-15T06:32:53.560Z,101964.22
2022-10-15T06:35:23.131Z,101967.53
2022-10-15T06:37:51.294Z,101973.69
2022-10-15T06:40:18.817Z,101957.78
2022-10-15T06:42:46.325Z,101959.56
2022-10-15T06:45:18.198Z,101955.91
2022-10-15T06:47:48.652Z,101961.00
2022-10-15T06:50:16.530Z,101959.16
2022-10-15T06:52:44.999Z,101960.50
2022-10-15T06:55:12.603Z,101959.75
2022-10-15T06:57:43.062Z,101963.28
2022-10-15T07:00:11.224Z,101961.47
2022-10-15T07:02:39.728Z,101958.69
2022-10-15T07:05:07.992Z,101969.09
2022-10-15T07:07:35.523Z,101967.38
2022-10-15T07:10:03.667Z,101968.16
2022-10-15T07:12:32.753Z,101974.84
2022-10-15T07:15:00.440Z,101964.16
2022-10-15T07:17:29.830Z,101966.53
2022-10-15T07:19:58.373Z,101965.50
2022-10-15T07:22:26.295Z,101968.75
2022-10-15T07:24:54.049Z,101967.63
2022-10-15T07:27:21.969Z,101963.09
2022-10-15T07:29:52.311Z,101958.63
2022-10-15T07:32:20.614Z,101962.88
2022-10-15T07:34:50.726Z,101956.56
2022-10-15T07:37:18.285Z,101956.13
2022-10-15T07:39:45.860Z,101960.34
2022-10-15T07:44:45.972Z,101953.09
2022-10-15T07:47:15.064Z,101952.97
2022-10-15T07:49:42.736Z,101947.41
2022-10-15T07:52:11.211Z,101953.31
2022-10-15T07:54:39.252Z,101942.63
2022-10-15T07:57:08.456Z,101945.28
2022-10-15T07:59:36.212Z,101945.06
2022-10-15T08:02:03.945Z,101947.47
2022-10-15T08:04:31.956Z,101939.97
2022-10-15T08:06:59.512Z,101944.06
2022-10-15T08:09:26.993Z,101940.84
2022-10-15T08:11:54.459Z,101950.09
2022-10-15T08:14:21.979Z,101942.13
2022-10-15T08:16:49.719Z,101947.16
2022-10-15T08:19:20.273Z,101929.19
2022-10-15T08:21:49.756Z,101933.84
2022-10-15T08:24:17.321Z,101929.81
2022-10-15T08:26:44.901Z,101926.59
2022-10-15T08:29:12.907Z,101923.34
2022-10-15T08:31:40.528Z,101924.72
2022-10-15T08:34:08.332Z,101918.84
2022-10-15T08:36:36.558Z,101917.06
2022-10-15T08:39:07.316Z,101918.47
2022-10-15T08:41:54.830Z,101922.47
2022-10-15T08:44:28.852Z,101913.50
2022-10-15T08:47:00.653Z,101918.34
2022-10-15T08:49:43.893Z,101924.00
2022-10-15T08:52:25.432Z,101922.47
2022-10-15T08:54:56.035Z,101916.00
2022-10-15T08:58:00.026Z,101913.69
2022-10-15T09:00:35.334Z,101914.31
2022-10-15T09:03:11.561Z,101913.16
2022-10-15T09:05:52.507Z,101913.06
2022-10-15T09:08:33.272Z,101907.78
2022-10-15T09:11:07.851Z,101908.78
2022-10-15T09:13:42.021Z,101893.31
2022-10-15T09:16:27.881Z,101898.53
2022-10-15T09:18:56.949Z,101895.03
2022-10-15T09:21:28.718Z,101896.75
2022-10-15T09:24:02.931Z,101896.56
2022-10-15T09:26:45.349Z,101890.16
2022-10-15T09:29:22.732Z,101898.28
2022-10-15T09:32:18.191Z,101887.59
2022-10-15T09:35:00.442Z,101889.53
2022-10-15T09:37:48.390Z,101885.44
2022-10-15T09:40:47.232Z,101895.66
2022-10-15T09:43:27.373Z,101893.44
2022-10-15T09:45:55.155Z,101892.06
2022-10-15T09:48:26.975Z,101889.38
2022-10-15T09:51:07.336Z,101891.81
2022-10-15T09:53:48.388Z,101888.38
2022-10-15T09:56:22.888Z,101887.34
2022-10-15T09:58:58.535Z,101895.81
2022-10-15T10:01:33.048Z,101885.16
2022-10-15T10:04:13.973Z,101875.09
2022-10-15T10:06:48.502Z,101886.00
2022-10-15T10:09:20.476Z,101874.00
2022-10-15T10:11:53.872Z,101884.28
2022-10-15T10:14:39.444Z,101872.88
2022-10-15T10:17:20.247Z,101879.66
2022-10-15T10:20:09.657Z,101878.34
2022-10-15T10:22:42.375Z,101870.31
2022-10-15T10:25:39.076Z,101868.06
2022-10-15T10:28:09.619Z,101867.22
2022-10-15T10:30:42.849Z,101871.56
2022-10-15T10:33:15.333Z,101868.31
2022-10-15T10:35:50.283Z,101855.75
2022-10-15T10:38:24.099Z,101856.56
2022-10-15T10:40:58.035Z,101852.75
2022-10-15T10:43:27.953Z,101863.91
2022-10-15T10:46:01.825Z,101859.91
2022-10-15T10:48:38.420Z,101855.34
2022-10-15T10:51:14.041Z,101864.97
2022-10-15T10:53:48.425Z,101855.63
2022-10-15T10:56:20.359Z,101853.22
2022-10-15T10:58:55.617Z,101850.66
2022-10-15T11:01:23.414Z,101845.88
2022-10-15T11:03:51.773Z,101847.19
2022-10-15T11:06:50.035Z,101851.28
2022-10-15T11:09:36.831Z,101845.34
2022-10-15T11:12:25.380Z,101847.38
2022-10-15T11:15:19.793Z,101846.16
2022-10-15T11:17:52.787Z,101842.50
2022-10-15T11:20:53.179Z,101830.59
2022-10-15T11:23:32.211Z,101842.06
2022-10-15T11:26:24.144Z,101834.72
2022-10-15T11:29:04.207Z,101836.63
2022-10-15T11:31:49.018Z,101841.47
2022-10-15T11:34:32.648Z,101845.81
2022-10-15T11:37:33.831Z,101835.53
2022-10-15T11:40:47.722Z,101842.00
2022-10-15T11:43:18.259Z,101840.63
2022-10-15T11:45:55.137Z,101842.63
2022-10-15T11:49:01.379Z,101840.84
2022-10-15T11:51:37.373Z,101843.69
2022-10-15T11:55:01.842Z,101849.56
2022-10-15T11:57:34.161Z,101848.63
2022-10-15T12:00:41.842Z,101845.09
2022-10-15T12:03:17.123Z,101850.41
2022-10-15T12:05:52.343Z,101846.16
2022-10-15T12:08:22.321Z,101843.56
2022-10-15T12:10:55.720Z,101846.50
2022-10-15T12:13:28.921Z,101853.19
2022-10-15T12:16:04.309Z,101845.25
2022-10-15T12:18:45.880Z,101848.34
2022-10-15T12:21:40.948Z,101850.25
2022-10-15T12:24:44.770Z,101839.97
2022-10-15T12:27:16.705Z,101842.72
2022-10-15T12:30:02.796Z,101842.16
2022-10-15T12:32:39.899Z,101842.84
2022-10-15T12:37:54.411Z,101842.50
2022-10-15T12:40:22.842Z,101836.25
2022-10-15T12:42:54.497Z,101843.78
2022-10-15T12:45:45.248Z,101842.22
2022-10-15T12:48:20.980Z,101840.47
2022-10-15T12:50:48.748Z,101835.16
2022-10-15T12:53:32.682Z,101837.25
2022-10-15T12:56:15.598Z,101847.88
2022-10-15T12:58:55.124Z,101846.88
2022-10-15T13:01:22.732Z,101847.22
2022-10-15T13:03:51.126Z,101850.53
2022-10-15T13:06:24.589Z,101856.97
2022-10-15T13:08:55.327Z,101844.63
2022-10-15T13:11:29.629Z,101839.44
2022-10-15T13:14:13.278Z,101845.03
2022-10-15T13:16:48.541Z,101839.88
2022-10-15T13:19:29.217Z,101842.69
2022-10-15T13:22:00.650Z,101838.22
2022-10-15T13:24:43.833Z,101836.34
2022-10-15T13:27:33.454Z,101829.53
2022-10-15T13:30:04.854Z,101834.91
2022-10-15T13:32:38.742Z,101835.25
2022-10-15T13:35:17.502Z,101836.56
2022-10-15T13:37:47.002Z,101834.84
2022-10-15T13:40:23.326Z,101828.00
2022-10-15T13:43:08.591Z,101829.22
2022-10-15T13:45:37.755Z,101824.91
2022-10-15T13:48:12.088Z,101817.50
2022-10-15T13:50:43.361Z,101819.88
2022-10-15T13:53:31.173Z,101826.50
2022-10-15T13:56:15.016Z,101826.91
2022-10-15T13:58:42.607Z,101824.44
2022-10-15T14:01:16.389Z,101827.31
2022-10-15T14:03:52.471Z,101821.59
2022-10-15T14:06:23.164Z,101827.88
2022-10-15T14:08:53.768Z,101830.72
2022-10-15T14:11:35.404Z,101832.50
2022-10-15T14:14:03.170Z,101827.28
2022-10-15T14:16:41.658Z,101822.94
2022-10-15T14:19:12.123Z,101825.69
2022-10-15T14:21:47.251Z,101823.25
2022-10-15T14:24:20.054Z,101820.97
2022-10-15T14:26:49.100Z,101829.97
2022-10-15T14:29:25.083Z,101824.38
2022-10-15T14:31:53.326Z,101820.25
2022-10-15T14:34:35.848Z,101809.16
2022-10-15T14:37:03.549Z,101817.19
2022-10-15T14:39:36.340Z,101815.50
2022-10-15T14:42:07.652Z,101822.94
2022-10-15T14:44:46.918Z,101821.47
2022-10-15T14:47:23.153Z,101821.63
2022-10-15T14:49:55.351Z,101821.84
2022-10-15T14:52:23.161Z,101821.13
2022-10-15T14:55:09.425Z,101815.31
2022-10-15T14:57:44.800Z,101813.66
2022-10-15T15:00:30.271Z,101822.63
2022-10-15T15:02:59.342Z,101822.59
2022-10-15T15:05:28.331Z,101821.03
2022-10-15T15:07:57.393Z,101835.28
2022-10-15T15:10:27.552Z,101834.56
2022-10-15T15:12:57.342Z,101842.63
2022-10-15T15:15:27.836Z,101841.78
2022-10-15T15:17:56.341Z,101834.84
2022-10-15T15:20:25.464Z,101842.13
2022-10-15T15:22:54.824Z,101854.50
2022-10-15T15:25:30.464Z,101856.56
2022-10-15T15:27:58.203Z,101851.63
2022-10-15T15:30:28.541Z,101856.13
2022-10-15T15:32:56.212Z,101857.91
2022-10-15T15:35:41.100Z,101863.38
2022-10-15T15:38:11.591Z,101859.97
2022-10-15T15:40:39.733Z,101866.31
2022-10-15T15:43:08.587Z,101860.28
2022-10-15T15:45:36.405Z,101867.34
2022-10-15T15:48:05.337Z,101869.13
2022-10-15T15:50:33.524Z,101872.41
2022-10-15T15:53:01.780Z,101872.63
2022-10-15T15:55:29.798Z,101873.63
2022-10-15T15:57:57.249Z,101886.03
2022-10-15T16:00:24.733Z,101878.19
2022-10-15T16:02:55.432Z,101885.31
2022-10-15T16:05:26.100Z,101886.22
2022-10-15T16:07:53.616Z,101885.44
2022-10-15T16:10:21.269Z,101883.00
2022-10-15T16:12:49.282Z,101884.75
2022-10-15T16:15:17.028Z,101886.47
2022-10-15T16:17:45.645Z,101878.75
2022-10-15T16:20:25.308Z,101893.00
2022-10-15T16:22:54.545Z,101889.59
2022-10-15T16:25:24.174Z,101889.56
2022-10-15T16:28:13.386Z,101889.75
2022-10-15T16:30:46.915Z,101895.13
2022-10-15T16:33:17.898Z,101892.66
2022-10-15T16:35:51.598Z,101890.16
2022-10-15T16:38:19.178Z,101890.16
2022-10-15T16:40:47.584Z,101895.53
2022-10-15T16:43:15.586Z,101894.75
2022-10-15T16:45:43.249Z,101895.72
2022-10-15T16:48:11.869Z,101900.13
2022-10-15T16:50:39.920Z,101904.75
2022-10-15T16:53:07.569Z,101901.38
2022-10-15T16:55:35.301Z,101897.13
2022-10-15T16:58:02.735Z,101908.66
2022-10-15T17:00:30.501Z,101905.22
2022-10-15T17:03:02.729Z,101907.06
2022-10-15T17:05:31.842Z,101901.84
2022-10-15T17:07:59.345Z,101900.13
2022-10-15T17:10:27.219Z,101904.66
2022-10-15T17:12:59.413Z,101910.06
2022-10-15T17:15:28.549Z,101910.97
2022-10-15T17:17:56.117Z,101910.09
2022-10-15T17:20:23.662Z,101912.81
2022-10-15T17:22:51.391Z,101907.69
2022-10-15T17:25:19.726Z,101915.72
2022-10-15T17:27:47.287Z,101915.81
2022-10-15T17:30:14.821Z,101906.44
2022-10-15T17:32:42.308Z,101912.56
2022-10-15T17:35:10.433Z,101909.41
2022-10-15T17:37:39.905Z,101916.59
2022-10-15T17:40:09.508Z,101921.16
2022-10-15T17:42:43.177Z,101922.06
2022-10-15T17:45:11.447Z,101922.94
2022-10-15T17:47:39.293Z,101921.97
2022-10-15T17:50:07.804Z,101917.66
2022-10-15T17:52:35.300Z,101924.63
2022-10-15T17:55:03.005Z,101922.13
2022-10-15T17:57:31.770Z,101919.56
2022-10-15T17:59:59.298Z,101922.28
2022-10-15T18:02:26.850Z,101929.50
2022-10-15T18:04:54.743Z,101924.31
2022-10-15T18:07:22.438Z,101936.59
2022-10-15T18:09:50.437Z,101933.13
2022-10-15T18:12:18.692Z,101935.78
2022-10-15T18:14:46.392Z,101941.19
2022-10-15T18:17:21.021Z,101935.03
2022-10-15T18:19:49.405Z,101933.41
2022-10-15T18:22:17.341Z,101934.41
2022-10-15T18:24:44.873Z,101940.75
2022-10-15T18:27:16.965Z,101940.72
2022-10-15T18:29:45.269Z,101938.22
2022-10-15T18:32:12.773Z,101940.84
2022-10-15T18:34:40.548Z,101941.72
2022-10-15T18:37:08.416Z,101946.16
2022-10-15T18:39:36.422Z,101948.94
2022-10-15T18:42:04.303Z,101944.66
2022-10-15T18:44:33.454Z,101951.00
2022-10-15T18:47:02.052Z,101954.53
2022-10-15T18:49:30.879Z,101955.41
2022-10-15T18:52:00.398Z,101955.53
2022-10-15T18:54:37.576Z,101952.94
2022-10-15T18:57:05.314Z,101960.03
2022-10-15T18:59:33.995Z,101964.38
2022-10-15T19:02:03.683Z,101972.38
2022-10-15T19:04:32.383Z,101966.16
2022-10-15T19:07:02.353Z,101967.16
2022-10-15T19:09:31.663Z,101976.88
2022-10-15T19:12:02.696Z,101975.00
2022-10-15T19:14:30.431Z,101989.22
2022-10-15T19:16:58.214Z,101989.22
2022-10-15T19:19:27.024Z,101995.34
2022-10-15T19:21:58.337Z,102001.56
2022-10-15T19:24:26.935Z,101996.47
2022-10-15T19:26:54.647Z,101994.72
2022-10-15T19:29:22.312Z,101999.91
2022-10-15T19:31:54.780Z,102002.56
2022-10-15T19:34:23.765Z,102007.03
2022-10-15T19:36:51.375Z,102008.06
2022-10-15T19:39:22.005Z,102006.34
2022-10-15T19:41:51.545Z,102015.91
2022-10-15T19:44:25.313Z,102022.53
2022-10-15T19:46:55.093Z,102026.78
2022-10-15T19:49:23.851Z,102029.44
2022-10-15T19:51:51.870Z,102030.28
2022-10-15T19:54:20.048Z,102028.66
2022-10-15T19:57:07.579Z,102024.28
2022-10-15T19:59:35.197Z,102035.72
2022-10-15T20:02:02.759Z,102026.03
2022-10-15T20:04:30.716Z,102037.44
2022-10-15T20:06:58.273Z,102035.88
2022-10-15T20:09:26.053Z,102035.69
2022-10-15T20:11:53.824Z,102029.75
2022-10-15T20:14:22.780Z,102033.09
2022-10-15T20:16:50.941Z,102034.94
2022-10-15T20:19:21.411Z,102030.56
2022-10-15T20:21:50.805Z,102036.81
2022-10-15T20:24:18.653Z,102042.22
2022-10-15T20:26:50.783Z,102027.34
2022-10-15T20:29:19.180Z,102030.91
2022-10-15T20:31:48.824Z,102036.16
2022-10-15T20:34:16.372Z,102033.50
2022-10-15T20:36:44.336Z,102037.81
2022-10-15T20:39:12.049Z,102036.19
2022-10-15T20:41:40.856Z,102037.13
2022-10-15T20:44:11.056Z,102031.00
2022-10-15T20:46:57.784Z,102037.31
2022-10-15T20:49:30.375Z,102042.50
2022-10-15T20:51:58.763Z,102042.50
2022-10-15T20:54:26.604Z,102047.00
2022-10-15T20:56:55.366Z,102039.94
2022-10-15T20:59:26.468Z,102040.84
2022-10-15T21:01:57.031Z,102046.13
2022-10-15T21:04:24.572Z,102042.56
2022-10-15T21:06:52.252Z,102048.66
2022-10-15T21:09:19.761Z,102042.50
2022-10-15T21:11:47.394Z,102040.78
2022-10-15T21:14:15.160Z,102032.88
2022-10-15T21:16:42.756Z,102032.97
2022-10-15T21:19:11.021Z,102039.03
2022-10-15T21:21:39.277Z,102043.44
2022-10-15T21:24:07.095Z,102036.59
2022-10-15T21:26:34.768Z,102048.94
2022-10-15T21:29:02.386Z,102042.84
2022-10-15T21:31:30.609Z,102045.44
2022-10-15T21:33:58.480Z,102048.19
2022-10-15T21:36:28.262Z,102044.59
2022-10-15T21:39:01.211Z,102047.31
2022-10-15T21:41:33.743Z,102054.28
2022-10-15T21:44:02.913Z,102057.94
2022-10-15T21:46:32.193Z,102050.22
2022-10-15T21:49:01.487Z,102054.63
2022-10-15T21:51:36.041Z,102062.44
2022-10-15T21:54:05.713Z,102061.69
2022-10-15T21:56:33.679Z,102064.34
2022-10-15T21:59:01.860Z,102064.41
2022-10-15T22:01:35.121Z,102060.00
2022-10-15T22:04:06.813Z,102062.56
2022-10-15T22:06:35.921Z,102070.53
2022-10-15T22:09:04.703Z,102069.00
2022-10-15T22:11:38.983Z,102070.69
2022-10-15T22:14:09.946Z,102076.88
2022-10-15T22:16:39.556Z,102079.38
2022-10-15T22:19:10.703Z,102085.44
2022-10-15T22:21:41.931Z,102091.69
2022-10-15T22:24:17.225Z,102090.88
2022-10-15T22:26:48.135Z,102098.03
2022-10-15T22:29:17.925Z,102091.97
2022-10-15T22:31:45.755Z,102088.56
2022-10-15T22:34:13.444Z,102091.19
2022-10-15T22:36:41.312Z,102088.66
2022-10-15T22:39:12.438Z,102085.16
2022-10-15T22:41:43.842Z,102078.13
2022-10-15T22:44:15.493Z,102085.38
2022-10-15T22:46:47.369Z,102086.31
2022-10-15T22:49:17.348Z,102089.03
2022-10-15T22:51:45.325Z,102086.47
2022-10-15T22:54:15.425Z,102088.16
2022-10-15T22:56:42.942Z,102093.44
2022-10-15T22:59:11.274Z,102092.66
2022-10-15T23:01:40.720Z,102089.25
2022-10-15T23:04:08.972Z,102095.41
2022-10-15T23:06:38.046Z,102093.75
2022-10-15T23:09:08.977Z,102095.63
2022-10-15T23:11:40.353Z,102095.66
2022-10-15T23:14:11.453Z,102097.38
2022-10-15T23:16:41.624Z,102094.66
2022-10-15T23:19:19.225Z,102097.31
2022-10-15T23:21:48.064Z,102102.50
2022-10-15T23:24:18.052Z,102103.38
2022-10-15T23:26:46.201Z,102106.03
2022-10-15T23:29:17.204Z,102106.81
2022-10-15T23:31:45.717Z,102109.53
2022-10-15T23:34:19.236Z,102116.63
2022-10-15T23:36:46.944Z,102105.38
2022-10-15T23:39:20.461Z,102109.75
2022-10-15T23:41:52.532Z,102109.69
2022-10-15T23:44:20.441Z,102115.03
2022-10-15T23:46:48.678Z,102121.09
2022-10-15T23:49:16.448Z,102120.22
2022-10-15T23:51:44.731Z,102121.09
2022-10-15T23:54:16.256Z,102124.59
2022-10-15T23:56:44.873Z,102117.56
2022-10-15T23:59:12.601Z,102122.03
